Woden, Texas
Current Conditions -  °F | °C
As of 3:55 PM on Friday 24 Oct 2014 (Local Time) from KOCH Reporting Station
Clear Clear  
Wind Chill: 79°   Ceiling: Unl
Heat Index: 79°   Visibility: 10mi
Dew Point: 55°   Wind: 6mph
Humidity: 44%   Direction: 340°NNW
Pressure: 30.11"   Gusts: NA
Location:  31.5°N, 94.53°W
Report Text: KOCH 242055Z AUTO 34005KT 10SM CLR 26/13 A3011 RMK AO1 57020
Loading
Personal Weather Stations






























Interactive Weather Map
Tropical Storm Tracking
New forecast layout! Learn more

10-Day Weather Forecast

Advertisements
Track Severe Weather on mobile